Time;durP1;ratioP1;P1;durP2;ratioP2;P2;SDS_P1;SDS_P2;PMS_P1;PMS_P2;Temp;Humidity;BMP_temperature;BMP_pressure;BME280_temperature;BME280_humidity;BME280_pressure;Samples;Min_cycle;Max_cycle;Signal;HPM_P1;HPM_P2
2023/04/22 00:01:54;;;;;;;8.70;7.80;;;;;;;12.78;91.57;154643.28;5043711;28;20489;-77
2023/04/22 00:04:22;;;;;;;10.37;9.30;;;;;;;12.78;93.09;154641.97;5060138;28;20559;-77
2023/04/22 00:06:49;;;;;;;10.90;9.90;;;;;;;12.77;95.12;154639.38;5044329;28;20456;-77
2023/04/22 00:09:15;;;;;;;11.30;9.00;;;;;;;12.78;93.27;154641.97;5040892;28;20545;-77
2023/04/22 00:11:42;;;;;;;10.20;9.10;;;;;;;12.83;93.83;154654.94;5033096;28;20917;-77
2023/04/22 00:14:08;;;;;;;12.40;9.57;;;;;;;12.84;97.05;154657.50;5041265;28;20488;-77
2023/04/22 00:16:35;;;;;;;11.17;10.00;;;;;;;12.75;96.37;154635.50;5061795;28;20446;-77
2023/04/22 00:19:02;;;;;;;11.97;10.67;;;;;;;12.75;95.74;154634.19;5049498;28;20464;-77
2023/04/22 00:21:29;;;;;;;12.77;11.47;;;;;;;12.77;96.70;154640.66;5037491;28;20462;-77
2023/04/22 00:23:56;;;;;;;13.90;11.23;;;;;;;12.77;96.69;154639.38;5032393;28;20463;-77
2023/04/22 00:26:23;;;;;;;14.77;11.50;;;;;;;12.81;98.06;154651.03;5056871;28;20449;-77
2023/04/22 00:28:49;;;;;;;15.20;10.93;;;;;;;12.77;97.58;154640.66;5052239;28;20449;-77
2023/04/22 00:31:16;;;;;;;12.30;10.80;;;;;;;12.75;98.27;154634.19;5034549;28;20450;-77
2023/04/22 00:33:43;;;;;;;12.27;10.30;;;;;;;12.74;99.27;154631.56;5031622;28;20462;-77
2023/04/22 00:36:09;;;;;;;10.77;9.67;;;;;;;12.69;98.74;154618.63;5046173;28;20453;-77
2023/04/22 00:38:37;;;;;;;13.03;10.57;;;;;;;12.68;99.88;154617.31;5037645;28;20968;-77
2023/04/22 00:41:04;;;;;;;11.97;10.77;;;;;;;12.63;100.00;154604.34;5044516;28;21009;-77
2023/04/22 00:43:32;;;;;;;11.33;9.60;;;;;;;12.56;99.22;154584.91;5052721;28;20464;-77
2023/04/22 00:45:59;;;;;;;11.77;9.90;;;;;;;12.54;100.00;154581.03;5065628;28;20444;-76
2023/04/22 00:48:26;;;;;;;10.70;9.60;;;;;;;12.52;100.00;154574.53;5050674;28;20452;-76
2023/04/22 00:50:52;;;;;;;10.93;9.83;;;;;;;12.48;100.00;154565.44;5042184;28;20458;-76
2023/04/22 00:53:19;;;;;;;10.03;9.00;;;;;;;12.44;100.00;154555.09;5042545;28;20947;-76
2023/04/22 00:55:46;;;;;;;9.57;8.37;;;;;;;12.42;100.00;154548.56;5033340;28;20492;-76
2023/04/22 00:58:13;;;;;;;9.00;8.10;;;;;;;12.40;98.94;154543.41;5049049;28;20455;-76
2023/04/22 01:00:40;;;;;;;9.20;8.20;;;;;;;12.40;100.00;154543.41;5051633;28;20462;-77
2023/04/22 01:03:07;;;;;;;10.50;9.50;;;;;;;12.37;100.00;154536.91;5040103;28;20465;-76
2023/04/22 01:05:34;;;;;;;8.97;8.07;;;;;;;12.34;100.00;154527.88;5029565;28;20450;-77
2023/04/22 01:08:01;;;;;;;10.10;8.97;;;;;;;12.31;100.00;154520.09;5032158;28;20445;-77
2023/04/22 01:10:27;;;;;;;10.30;9.07;;;;;;;12.28;100.00;154513.59;5039515;28;20457;-77
2023/04/22 01:12:55;;;;;;;9.67;8.67;;;;;;;12.25;100.00;154504.50;5036577;28;20475;-77
2023/04/22 01:15:22;;;;;;;9.73;8.77;;;;;;;12.25;100.00;154504.50;5033095;28;20504;-76
2023/04/22 01:17:49;;;;;;;10.60;9.20;;;;;;;12.24;100.00;154503.19;5029959;28;20507;-77
2023/04/22 01:20:16;;;;;;;13.13;9.63;;;;;;;12.23;100.00;154499.34;5043560;28;20456;-77
2023/04/22 01:22:44;;;;;;;9.90;8.80;;;;;;;12.20;100.00;154494.13;5033437;28;20446;-77
2023/04/22 01:25:12;;;;;;;11.43;10.23;;;;;;;12.21;100.00;154496.72;5062537;28;20791;-77
2023/04/22 01:27:39;;;;;;;9.67;8.77;;;;;;;12.14;100.00;154477.28;5055925;28;20533;-77
2023/04/22 01:30:07;;;;;;;9.67;8.67;;;;;;;12.12;100.00;154473.41;5048962;28;20463;-76
2023/04/22 01:32:35;;;;;;;10.53;9.40;;;;;;;12.07;100.00;154459.16;5066740;28;20533;-77
2023/04/22 01:35:01;;;;;;;13.10;10.50;;;;;;;12.03;100.00;154448.75;5051712;28;20474;-77
2023/04/22 01:37:28;;;;;;;9.97;8.97;;;;;;;11.99;100.00;154439.66;5044034;28;20452;-76
2023/04/22 01:39:55;;;;;;;10.63;9.20;;;;;;;11.97;100.00;154434.50;5021888;28;20982;-77
2023/04/22 01:42:23;;;;;;;10.67;9.57;;;;;;;11.96;100.00;154431.94;5049731;28;20967;-77
2023/04/22 01:44:50;;;;;;;10.80;9.70;;;;;;;11.97;100.00;154433.19;5040785;28;20470;-77
2023/04/22 01:47:16;;;;;;;10.10;9.10;;;;;;;11.94;100.00;154426.72;5028792;28;20470;-77
2023/04/22 01:49:43;;;;;;;12.90;9.87;;;;;;;11.93;100.00;154424.16;5045200;28;20456;-77
2023/04/22 01:52:10;;;;;;;10.13;8.53;;;;;;;11.97;100.00;154433.19;5036606;28;20448;-77
2023/04/22 01:54:36;;;;;;;9.53;8.53;;;;;;;11.95;100.00;154429.31;5034157;28;20481;-77
2023/04/22 01:57:09;;;;;;;9.97;8.40;;;;;;;11.93;100.00;154422.84;5054528;28;20468;-77
2023/04/22 01:59:37;;;;;;;9.10;8.20;;;;;;;11.89;100.00;154413.75;5032604;28;20513;-77
2023/04/22 02:02:04;;;;;;;10.93;9.17;;;;;;;11.90;100.00;154416.38;5059039;28;20556;-77
2023/04/22 02:04:30;;;;;;;9.97;8.93;;;;;;;11.93;100.00;154422.84;5039290;28;20449;-77
2023/04/22 02:06:57;;;;;;;10.60;9.23;;;;;;;11.89;100.00;154413.75;5039259;28;20460;-77
2023/04/22 02:09:23;;;;;;;9.40;7.97;;;;;;;11.86;100.00;154404.72;5034672;28;20462;-77
2023/04/22 02:11:50;;;;;;;9.87;8.40;;;;;;;11.85;100.00;154402.09;5025787;28;20508;-77
2023/04/22 02:14:20;;;;;;;11.93;10.73;;;;;;;11.83;100.00;154398.22;5056274;28;20521;-77
2023/04/22 02:16:48;;;;;;;9.80;8.77;;;;;;;11.82;100.00;154395.63;5039318;28;20504;-77
2023/04/22 02:19:16;;;;;;;12.07;9.50;;;;;;;11.84;100.00;154400.78;5055605;28;20463;-77
2023/04/22 02:21:42;;;;;;;9.57;8.57;;;;;;;11.85;100.00;154402.09;5047611;28;20476;-77
2023/04/22 02:24:09;;;;;;;9.53;8.53;;;;;;;11.86;100.00;154405.97;5059543;28;20482;-77
2023/04/22 02:26:36;;;;;;;9.90;8.50;;;;;;;11.83;100.00;154398.22;5042549;28;20841;-77
2023/04/22 02:29:02;;;;;;;8.87;8.03;;;;;;;11.80;100.00;154389.16;5032882;28;20463;-77
2023/04/22 02:31:30;;;;;;;9.60;8.60;;;;;;;11.79;100.00;154386.53;5051599;28;20547;-77
2023/04/22 02:33:58;;;;;;;10.73;9.60;;;;;;;11.79;100.00;154387.84;5031980;28;20479;-77
2023/04/22 02:36:26;;;;;;;10.73;9.63;;;;;;;11.80;100.00;154390.44;5065472;28;20474;-77
2023/04/22 02:38:53;;;;;;;11.53;10.33;;;;;;;11.81;100.00;154393.00;5046755;28;20512;-77
2023/04/22 02:41:19;;;;;;;10.77;9.70;;;;;;;11.77;100.00;154382.66;5047820;28;20522;-77
2023/04/22 02:43:46;;;;;;;10.40;9.30;;;;;;;11.78;100.00;154383.97;5054129;28;20518;-77
2023/04/22 02:46:14;;;;;;;10.10;9.10;;;;;;;11.74;100.00;154374.88;5030547;28;20446;-77
2023/04/22 02:48:41;;;;;;;9.10;8.00;;;;;;;11.73;100.00;154372.28;5024162;28;20449;-77
2023/04/22 02:51:09;;;;;;;10.87;8.83;;;;;;;11.73;100.00;154372.28;5055518;28;20535;-77
2023/04/22 02:53:35;;;;;;;11.77;9.40;;;;;;;11.67;100.00;154356.72;5047439;28;20459;-76
2023/04/22 02:56:02;;;;;;;10.30;9.20;;;;;;;11.60;100.00;154339.84;5061882;28;20479;-77
2023/04/22 02:58:29;;;;;;;10.67;9.53;;;;;;;11.57;100.00;154330.75;5031606;28;21005;-77
2023/04/22 03:00:56;;;;;;;11.13;9.67;;;;;;;11.57;100.00;154330.75;5032520;28;20514;-77
2023/04/22 03:03:23;;;;;;;10.60;9.50;;;;;;;11.53;100.00;154321.72;5033455;28;20460;-77
2023/04/22 03:05:50;;;;;;;10.73;9.23;;;;;;;11.50;100.00;154312.63;5024231;28;20475;-77
2023/04/22 03:08:18;;;;;;;11.33;10.20;;;;;;;11.44;100.00;154298.38;5048344;28;20500;-77
2023/04/22 03:10:45;;;;;;;10.97;9.43;;;;;;;11.38;100.00;154282.84;5037580;28;20474;-77
2023/04/22 03:13:12;;;;;;;10.70;9.70;;;;;;;11.35;100.00;154273.78;5045074;28;20993;-77
2023/04/22 03:15:40;;;;;;;9.83;8.83;;;;;;;11.38;100.00;154281.56;5047209;28;20478;-77
2023/04/22 03:18:06;;;;;;;9.73;8.40;;;;;;;11.37;100.00;154278.94;5031100;28;20456;-77
2023/04/22 03:20:33;;;;;;;10.37;8.60;;;;;;;11.36;100.00;154276.34;5059438;28;20470;-77
2023/04/22 03:22:59;;;;;;;9.63;8.63;;;;;;;11.33;100.00;154268.59;5047865;28;21681;-77
2023/04/22 03:25:28;;;;;;;9.10;8.20;;;;;;;11.37;100.00;154278.94;5030174;28;20465;-78
2023/04/22 03:27:56;;;;;;;8.90;8.00;;;;;;;11.36;100.00;154277.63;5013035;28;20463;-78
2023/04/22 03:30:24;;;;;;;10.23;8.70;;;;;;;11.37;100.00;154280.25;5042757;28;20466;-77
2023/04/22 03:32:52;;;;;;;8.40;7.60;;;;;;;11.37;100.00;154278.94;5035456;28;20454;-77
2023/04/22 03:35:26;;;;;;;9.80;8.30;;;;;;;11.34;100.00;154271.16;5031377;28;21004;-78
2023/04/22 03:37:57;;;;;;;9.47;8.53;;;;;;;11.33;100.00;154268.59;5049286;28;20460;-77
2023/04/22 03:40:30;;;;;;;8.97;8.10;;;;;;;11.32;100.00;154266.00;5014655;28;20467;-77
2023/04/22 03:42:56;;;;;;;8.03;7.23;;;;;;;11.31;100.00;154264.69;5040757;28;20494;-77
2023/04/22 03:45:23;;;;;;;8.17;6.87;;;;;;;11.29;100.00;154258.22;5032558;28;20601;-77
2023/04/22 03:48:02;;;;;;;8.57;7.47;;;;;;;11.30;100.00;154262.13;5052078;28;20887;-77
2023/04/22 03:50:37;;;;;;;10.73;8.17;;;;;;;11.30;100.00;154262.13;5037436;28;20751;-77
2023/04/22 03:53:04;;;;;;;8.67;7.60;;;;;;;11.28;100.00;154256.91;5032806;28;20481;-77
2023/04/22 03:55:32;;;;;;;8.77;7.43;;;;;;;11.26;100.00;154250.44;5052462;28;20947;-77
2023/04/22 03:57:59;;;;;;;8.27;7.40;;;;;;;11.27;100.00;154254.34;5018856;28;20490;-77
2023/04/22 04:00:25;;;;;;;7.90;7.10;;;;;;;11.25;100.00;154247.88;5018513;28;20459;-77
2023/04/22 04:03:04;;;;;;;8.60;7.70;;;;;;;11.23;100.00;154242.66;5038519;28;20461;-78
2023/04/22 04:05:31;;;;;;;9.90;7.67;;;;;;;11.21;100.00;154237.47;5043671;28;20448;-78
2023/04/22 04:07:57;;;;;;;10.67;9.17;;;;;;;11.19;100.00;154232.31;5042330;28;20461;-78
2023/04/22 04:10:25;;;;;;;9.33;8.40;;;;;;;11.13;100.00;154216.75;5015046;28;20519;-78
2023/04/22 04:12:55;;;;;;;10.43;9.37;;;;;;;11.08;100.00;154205.13;5033035;28;20548;-78
2023/04/22 04:15:23;;;;;;;8.50;7.63;;;;;;;10.98;100.00;154179.22;5011860;28;20481;-78
2023/04/22 04:17:50;;;;;;;11.30;9.63;;;;;;;10.94;100.00;154170.13;5046282;28;20634;-78
2023/04/22 04:20:19;;;;;;;11.00;9.60;;;;;;;10.94;100.00;154170.13;5039574;28;20472;-78
2023/04/22 04:22:46;;;;;;;9.23;8.27;;;;;;;10.89;100.00;154157.19;5039130;28;20477;-78
2023/04/22 04:25:12;;;;;;;9.40;8.30;;;;;;;10.88;100.00;154154.56;5038128;28;20454;-78
2023/04/22 04:27:44;;;;;;;10.40;9.40;;;;;;;10.87;100.00;154150.72;5019788;28;20500;-78
2023/04/22 04:30:15;;;;;;;10.70;9.60;;;;;;;10.83;100.00;154141.63;5044475;28;20449;-78
2023/04/22 04:32:45;;;;;;;10.13;9.03;;;;;;;10.79;100.00;154131.28;5038133;28;21015;-78
2023/04/22 04:35:13;;;;;;;10.90;9.63;;;;;;;10.76;100.00;154122.22;5033880;28;20527;-78
2023/04/22 04:37:43;;;;;;;10.57;9.53;;;;;;;10.72;100.00;154113.13;5032709;28;20449;-78
2023/04/22 04:40:11;;;;;;;12.13;10.80;;;;;;;10.74;100.00;154118.34;5053175;28;20461;-78
2023/04/22 04:42:54;;;;;;;13.40;11.90;;;;;;;10.75;100.00;154119.66;5031004;28;20451;-79
2023/04/22 04:45:25;;;;;;;11.90;10.00;;;;;;;10.72;100.00;154113.13;5047527;28;20449;-78
2023/04/22 04:47:53;;;;;;;13.00;11.60;;;;;;;10.74;100.00;154117.03;5029803;28;20469;-79
2023/04/22 04:50:26;;;;;;;11.70;10.27;;;;;;;10.74;100.00;154118.34;5023368;28;20883;-78
2023/04/22 04:52:55;;;;;;;12.47;10.63;;;;;;;10.69;100.00;154105.41;5027079;28;20445;-78
2023/04/22 04:55:27;;;;;;;12.17;10.23;;;;;;;10.72;100.00;154111.88;5047987;28;20492;-78
2023/04/22 04:57:54;;;;;;;12.97;10.50;;;;;;;10.69;100.00;154105.41;5048336;28;20464;-78
2023/04/22 05:00:22;;;;;;;10.40;9.30;;;;;;;10.72;100.00;154111.88;5023533;28;20827;-78
2023/04/22 05:02:50;;;;;;;11.17;10.00;;;;;;;10.73;100.00;154114.44;5033380;28;20446;-78
2023/04/22 05:05:17;;;;;;;11.33;9.40;;;;;;;10.72;100.00;154113.13;5027052;28;20822;-78
2023/04/22 05:07:56;;;;;;;9.53;8.53;;;;;;;10.77;100.00;154126.13;5044483;28;20602;-78
2023/04/22 05:10:23;;;;;;;8.90;7.50;;;;;;;10.79;100.00;154131.28;5036657;28;20507;-78
2023/04/22 05:12:50;;;;;;;8.53;7.50;;;;;;;10.80;100.00;154132.59;5039388;28;21033;-78
2023/04/22 05:15:21;;;;;;;9.60;8.60;;;;;;;10.80;100.00;154133.84;5044988;28;20542;-78
2023/04/22 05:17:49;;;;;;;8.40;7.60;;;;;;;10.81;100.00;154135.16;5042585;28;20472;-78
2023/04/22 05:20:16;;;;;;;7.90;7.10;;;;;;;10.80;100.00;154132.59;5045218;28;20496;-78
2023/04/22 05:22:44;;;;;;;9.30;8.27;;;;;;;10.84;100.00;154144.25;5058474;28;20543;-78
2023/04/22 05:25:11;;;;;;;11.40;8.97;;;;;;;10.85;100.00;154146.84;5045753;28;20453;-78
2023/04/22 05:27:43;;;;;;;8.40;7.10;;;;;;;10.80;100.00;154133.84;5058184;28;20448;-78
2023/04/22 05:30:12;;;;;;;8.40;7.30;;;;;;;10.85;100.00;154146.84;5046558;28;20458;-78
2023/04/22 05:32:39;;;;;;;9.80;7.23;;;;;;;10.87;100.00;154152.03;5042553;28;20456;-78
2023/04/22 05:35:08;;;;;;;7.93;7.13;;;;;;;10.96;100.00;154175.31;5023160;28;20485;-78
2023/04/22 05:37:36;;;;;;;6.70;6.03;;;;;;;10.99;100.00;154181.78;5056441;28;20470;-78
2023/04/22 05:40:03;;;;;;;8.47;6.87;;;;;;;10.98;100.00;154180.53;5045335;28;20548;-77
2023/04/22 05:42:30;;;;;;;6.33;5.73;;;;;;;10.99;100.00;154183.09;5035264;28;20461;-77
2023/04/22 05:44:57;;;;;;;7.07;5.93;;;;;;;11.02;100.00;154189.56;5046723;28;20462;-77
2023/04/22 05:47:23;;;;;;;7.67;6.70;;;;;;;11.02;100.00;154190.84;5043300;28;20493;-77
2023/04/22 05:49:50;;;;;;;8.73;7.57;;;;;;;11.02;100.00;154190.84;5045779;28;20865;-77
2023/04/22 05:52:24;;;;;;;12.90;8.60;;;;;;;11.07;100.00;154202.50;5058750;28;20992;-77
2023/04/22 05:55:00;;;;;;;8.53;7.63;;;;;;;11.10;100.00;154208.97;5037093;28;22124;-77
2023/04/22 05:57:27;;;;;;;9.27;8.07;;;;;;;11.11;100.00;154211.59;5043685;28;20475;-77
2023/04/22 05:59:54;;;;;;;10.10;8.20;;;;;;;11.16;100.00;154225.84;5043205;28;21081;-77
2023/04/22 06:02:21;;;;;;;6.77;6.07;;;;;;;11.24;100.00;154246.56;5059620;28;20808;-77
2023/04/22 06:04:47;;;;;;;7.30;6.60;;;;;;;11.27;100.00;154253.03;5035916;28;20465;-77
2023/04/22 06:07:14;;;;;;;6.20;5.60;;;;;;;11.43;100.00;154294.50;5038702;28;20551;-77
2023/04/22 06:09:42;;;;;;;7.27;6.27;;;;;;;11.54;100.00;154324.28;5045674;28;21016;-76
2023/04/22 06:12:09;;;;;;;6.90;6.07;;;;;;;11.70;100.00;154364.53;5040775;28;21106;-77
2023/04/22 06:14:36;;;;;;;7.20;6.20;;;;;;;11.95;100.00;154429.31;5056328;28;20465;-77
2023/04/22 06:17:02;;;;;;;7.47;6.00;;;;;;;12.24;100.00;154503.19;5043397;28;20478;-77
2023/04/22 06:19:29;;;;;;;6.13;5.57;;;;;;;12.39;100.00;154542.09;5057465;28;20848;-77
2023/04/22 06:21:56;;;;;;;5.67;5.17;;;;;;;12.48;100.00;154565.44;5042189;28;20453;-77
2023/04/22 06:24:23;;;;;;;6.67;5.60;;;;;;;12.61;100.00;154597.84;5044834;28;20455;-77
2023/04/22 06:26:51;;;;;;;6.47;5.80;;;;;;;12.71;100.00;154623.78;5057039;28;20448;-77
2023/04/22 06:29:18;;;;;;;5.70;5.10;;;;;;;12.93;99.24;154680.88;5040299;28;20456;-78
2023/04/22 06:31:44;;;;;;;6.10;5.07;;;;;;;13.10;98.88;154725.06;5027223;28;20457;-77
2023/04/22 06:34:11;;;;;;;5.87;5.10;;;;;;;13.22;98.65;154756.19;5055731;28;20523;-77
2023/04/22 06:36:37;;;;;;;5.50;5.00;;;;;;;13.28;96.01;154770.44;5059404;28;20465;-77
2023/04/22 06:39:06;;;;;;;6.63;5.20;;;;;;;13.35;97.16;154788.59;5039665;28;20446;-77
2023/04/22 06:41:52;;;;;;;6.23;5.63;;;;;;;13.35;97.38;154789.91;5060658;28;20464;-77
2023/04/22 06:44:39;;;;;;;6.13;5.53;;;;;;;13.32;95.15;154782.13;5042493;28;21275;-78
2023/04/22 06:47:26;;;;;;;7.37;6.33;;;;;;;13.35;97.31;154789.91;5041687;28;20450;-77
2023/04/22 06:49:59;;;;;;;7.43;5.37;;;;;;;13.24;96.81;154760.03;5039477;28;20457;-77
2023/04/22 06:52:34;;;;;;;6.00;5.40;;;;;;;13.21;96.49;154753.56;5059275;28;20457;-77
2023/04/22 06:55:02;;;;;;;5.83;5.27;;;;;;;13.19;95.62;154747.06;5028793;28;20485;-77
2023/04/22 06:57:30;;;;;;;6.63;5.67;;;;;;;13.19;96.56;154747.06;5038760;28;20470;-77
2023/04/22 06:59:56;;;;;;;6.77;5.53;;;;;;;13.17;95.23;154743.22;5042667;28;20939;-78
2023/04/22 07:02:26;;;;;;;6.67;5.97;;;;;;;13.22;94.43;154756.19;5052651;28;20450;-77
2023/04/22 07:04:52;;;;;;;5.83;5.33;;;;;;;13.27;97.85;154767.84;5044778;28;20457;-77
2023/04/22 07:07:19;;;;;;;5.90;5.10;;;;;;;13.24;99.61;154760.03;5025197;28;20523;-78
2023/04/22 07:09:46;;;;;;;7.97;6.60;;;;;;;13.25;98.70;154763.97;5060970;28;21253;-77
2023/04/22 07:12:12;;;;;;;5.83;4.93;;;;;;;13.30;97.57;154776.94;5049262;28;20461;-78
2023/04/22 07:14:44;;;;;;;7.13;5.73;;;;;;;13.35;96.99;154789.91;5036860;28;21314;-78
2023/04/22 07:17:11;;;;;;;7.40;5.97;;;;;;;13.43;96.29;154810.66;5054966;28;20471;-77
2023/04/22 07:19:37;;;;;;;6.43;5.57;;;;;;;13.54;95.70;154836.63;5041301;28;20458;-77
2023/04/22 07:22:05;;;;;;;6.47;5.70;;;;;;;13.64;96.10;154862.56;5042411;28;20466;-77
2023/04/22 07:24:32;;;;;;;6.57;5.90;;;;;;;13.70;95.59;154878.16;5055228;28;20470;-78
2023/04/22 07:26:58;;;;;;;7.10;5.40;;;;;;;13.72;95.27;154883.34;5042963;28;20953;-78
2023/04/22 07:29:25;;;;;;;6.07;5.40;;;;;;;13.77;94.01;154896.31;5057775;28;20466;-77
2023/04/22 07:31:53;;;;;;;8.80;5.67;;;;;;;13.80;91.22;154904.09;5044983;28;20450;-77
2023/04/22 07:34:20;;;;;;;7.10;6.20;;;;;;;13.88;90.64;154924.88;5037079;28;20459;-78
2023/04/22 07:36:46;;;;;;;6.03;4.93;;;;;;;14.04;88.98;154966.41;5042219;28;20478;-78
2023/04/22 07:39:13;;;;;;;6.50;5.00;;;;;;;14.14;90.59;154991.13;5041964;28;20517;-85
2023/04/22 07:41:39;;;;;;;5.00;4.50;;;;;;;14.24;88.33;155017.09;5036422;28;20813;-88
2023/04/22 07:44:06;;;;;;;5.00;4.43;;;;;;;14.35;88.33;155046.97;5033325;28;20900;-86
2023/04/22 07:46:32;;;;;;;6.30;5.13;;;;;;;14.47;87.49;155076.84;5057833;28;20955;-85
2023/04/22 07:49:00;;;;;;;5.50;4.83;;;;;;;14.57;87.07;155104.13;5054461;28;20478;-86
2023/04/22 07:51:26;;;;;;;6.33;5.10;;;;;;;14.69;89.36;155132.72;5054265;28;20471;-85
2023/04/22 07:53:53;;;;;;;5.47;4.97;;;;;;;14.73;85.07;155143.09;5054685;28;20466;-85
2023/04/22 07:56:20;;;;;;;5.20;4.70;;;;;;;14.81;85.82;155163.88;5039447;28;20487;-86
2023/04/22 07:58:46;;;;;;;5.50;5.00;;;;;;;14.93;89.08;155195.06;5016699;28;20479;-85
2023/04/22 08:01:13;;;;;;;6.77;5.50;;;;;;;15.01;88.74;155215.88;5037360;28;20459;-85
2023/04/22 08:03:39;;;;;;;5.60;5.10;;;;;;;15.02;90.42;155219.75;5039585;28;20467;-85
2023/04/22 08:06:07;;;;;;;12.60;5.50;;;;;;;15.00;89.52;155213.25;5041531;28;20462;-85
2023/04/22 08:08:34;;;;;;;5.77;5.27;;;;;;;15.03;87.86;155221.03;5039829;28;20479;-85
2023/04/22 08:11:00;;;;;;;6.10;5.20;;;;;;;15.11;88.06;155243.16;5057009;28;20455;-86
2023/04/22 08:13:27;;;;;;;5.53;5.00;;;;;;;15.15;87.79;155252.22;5053195;28;20858;-86
2023/04/22 08:15:54;;;;;;;5.00;4.50;;;;;;;15.22;86.28;155271.69;5056033;28;20462;-86
2023/04/22 08:18:20;;;;;;;4.70;4.30;;;;;;;15.33;86.05;155298.97;5057160;28;20807;-87
2023/04/22 08:20:47;;;;;;;5.40;4.50;;;;;;;15.40;86.04;155317.22;5055156;28;20815;-86
2023/04/22 08:23:15;;;;;;;4.40;3.93;;;;;;;15.46;90.03;155332.81;5044568;28;20854;-86
2023/04/22 08:25:41;;;;;;;6.53;4.57;;;;;;;15.47;84.72;155334.13;5046552;28;20531;-87
2023/04/22 08:28:08;;;;;;;4.10;3.70;;;;;;;15.52;84.97;155348.44;5052867;28;20459;-86
2023/04/22 08:30:35;;;;;;;4.60;4.20;;;;;;;15.60;85.16;155369.22;5047066;28;20534;-86
2023/04/22 08:33:01;;;;;;;5.03;4.53;;;;;;;15.70;84.85;155393.97;5055993;28;20461;-87
2023/04/22 08:35:28;;;;;;;5.03;3.90;;;;;;;15.91;84.83;155447.25;5055434;28;20536;-87
2023/04/22 08:37:54;;;;;;;4.53;4.00;;;;;;;16.20;80.98;155522.66;5044975;28;20484;-87
2023/04/22 08:40:22;;;;;;;4.80;3.70;;;;;;;16.55;78.32;155613.72;5059459;28;20454;-87
2023/04/22 08:42:51;;;;;;;5.20;3.73;;;;;;;16.80;80.14;155678.78;5055511;28;20462;-86
2023/04/22 08:45:18;;;;;;;3.10;2.80;;;;;;;16.89;80.36;155702.19;5043823;28;20848;-78
2023/04/22 08:47:45;;;;;;;4.37;3.43;;;;;;;16.98;74.09;155725.63;5036812;28;20505;-78
2023/04/22 08:50:12;;;;;;;3.20;2.90;;;;;;;17.19;71.61;155778.97;5044192;28;20458;-78
2023/04/22 08:52:38;;;;;;;4.73;3.00;;;;;;;17.36;69.88;155823.25;5039532;28;20455;-78
2023/04/22 08:55:06;;;;;;;3.60;3.30;;;;;;;17.42;70.28;155837.56;5056942;28;20486;-78
2023/04/22 08:57:36;;;;;;;5.20;2.93;;;;;;;17.52;70.03;155863.59;5040743;28;20476;-78
2023/04/22 09:00:04;;;;;;;2.80;2.37;;;;;;;17.74;69.37;155919.63;5042902;28;20481;-78
2023/04/22 09:02:32;;;;;;;4.57;3.47;;;;;;;17.85;66.73;155949.53;5055892;28;20462;-78
2023/04/22 09:05:01;;;;;;;2.90;2.70;;;;;;;18.05;64.29;156001.66;5040798;28;20471;-78
2023/04/22 09:07:30;;;;;;;3.10;2.80;;;;;;;18.19;61.74;156036.75;5058623;28;20950;-78
2023/04/22 09:09:57;;;;;;;3.23;2.63;;;;;;;18.28;71.47;156060.22;5055991;28;20463;-78
2023/04/22 09:12:25;;;;;;;3.60;3.10;;;;;;;18.27;64.64;156057.59;5038388;28;20545;-78
2023/04/22 09:14:53;;;;;;;2.80;2.57;;;;;;;18.44;68.51;156100.59;5040483;28;20964;-78
2023/04/22 09:17:31;;;;;;;3.57;2.77;;;;;;;18.26;66.22;156055.03;5019921;28;20478;-76
2023/04/22 09:19:58;;;;;;;2.50;2.30;;;;;;;18.38;61.82;156086.28;5041552;28;20463;-78
2023/04/22 09:22:26;;;;;;;3.57;3.23;;;;;;;18.56;62.27;156133.19;5045764;28;20455;-78
2023/04/22 09:24:53;;;;;;;3.53;3.23;;;;;;;18.54;62.55;156128.00;5056271;28;20980;-78
2023/04/22 09:27:20;;;;;;;3.50;2.60;;;;;;;18.49;63.08;156113.66;5053294;28;20458;-78
2023/04/22 09:29:48;;;;;;;5.33;3.00;;;;;;;18.53;60.35;156124.13;5055119;28;20476;-78
2023/04/22 09:32:16;;;;;;;6.17;3.10;;;;;;;18.63;60.47;156151.47;5043101;28;20467;-78
2023/04/22 09:34:50;;;;;;;3.60;2.50;;;;;;;18.66;61.78;156158.00;5046059;28;20462;-77
2023/04/22 09:37:19;;;;;;;3.70;2.73;;;;;;;18.73;59.84;156176.22;5036847;28;20946;-78
2023/04/22 09:39:48;;;;;;;3.10;2.80;;;;;;;18.87;60.50;156212.72;5044408;28;20810;-76
2023/04/22 09:42:15;;;;;;;3.93;3.50;;;;;;;18.91;61.57;156223.09;5055881;28;20486;-76
2023/04/22 09:44:41;;;;;;;3.40;3.10;;;;;;;18.99;60.73;156243.97;5058006;28;20940;-78
2023/04/22 09:47:10;;;;;;;3.20;2.90;;;;;;;18.94;64.14;156229.63;5040716;28;20544;-78
2023/04/22 09:49:38;;;;;;;2.90;2.57;;;;;;;18.83;63.86;156202.25;5059188;28;20471;-76
2023/04/22 09:52:05;;;;;;;3.30;3.00;;;;;;;18.85;61.73;156208.78;5043263;28;20817;-76
2023/04/22 09:54:32;;;;;;;2.90;2.60;;;;;;;18.96;59.50;156234.81;5038944;28;20483;-78
2023/04/22 09:56:59;;;;;;;4.53;2.63;;;;;;;18.96;63.59;156234.81;5042417;28;20463;-76
2023/04/22 09:59:27;;;;;;;3.10;2.43;;;;;;;18.97;61.92;156238.75;5043076;28;20454;-76
2023/04/22 10:01:55;;;;;;;3.50;2.80;;;;;;;19.11;60.81;156273.94;5042194;28;20996;-77
2023/04/22 10:04:24;;;;;;;3.03;2.73;;;;;;;19.25;61.95;156311.72;5041836;28;20489;-77
2023/04/22 10:06:53;;;;;;;3.33;2.77;;;;;;;19.20;68.78;156298.69;5057490;28;20483;-77
2023/04/22 10:09:21;;;;;;;3.47;3.00;;;;;;;19.05;61.45;156259.59;5041194;28;20459;-77
2023/04/22 10:11:48;;;;;;;3.20;2.90;;;;;;;19.14;59.62;156283.03;5028597;28;20541;-77
2023/04/22 10:14:15;;;;;;;4.90;3.07;;;;;;;19.29;59.51;156322.16;5053872;28;20458;-77
2023/04/22 10:16:47;;;;;;;3.37;3.07;;;;;;;19.36;59.50;156340.41;5044194;28;20482;-77
2023/04/22 10:19:16;;;;;;;2.70;2.50;;;;;;;19.55;61.83;156387.38;5040136;28;20802;-77
2023/04/22 10:21:44;;;;;;;3.10;2.80;;;;;;;19.52;58.60;156380.84;5040907;28;20453;-77
2023/04/22 10:24:29;;;;;;;3.27;2.97;;;;;;;19.34;60.17;156335.19;5040322;28;20838;-77
2023/04/22 10:26:57;;;;;;;2.97;2.63;;;;;;;19.41;59.52;156353.47;5054806;28;20468;-77
2023/04/22 10:29:25;;;;;;;3.67;3.37;;;;;;;19.54;60.32;156384.78;5057294;28;20455;-77
2023/04/22 10:31:55;;;;;;;3.60;3.30;;;;;;;19.62;59.21;156405.66;5041543;28;20458;-77
2023/04/22 10:34:22;;;;;;;3.80;3.37;;;;;;;19.53;59.80;156383.47;5045233;28;20455;-77
2023/04/22 10:36:53;;;;;;;3.20;2.90;;;;;;;19.41;62.27;156353.47;5057646;28;20524;-77
2023/04/22 10:39:21;;;;;;;3.27;2.83;;;;;;;19.56;60.32;156390.00;5017493;28;20488;-78
2023/04/22 10:41:53;;;;;;;2.63;2.43;;;;;;;19.63;60.36;156409.53;5001579;28;20528;-78
2023/04/22 10:44:21;;;;;;;2.80;2.50;;;;;;;19.74;59.47;156436.91;5002455;28;20464;-78
2023/04/22 10:46:59;;;;;;;2.33;2.13;;;;;;;19.84;54.85;156464.31;5003255;28;20461;-78
2023/04/22 10:49:26;;;;;;;2.63;2.40;;;;;;;19.88;54.66;156474.69;4983413;28;20457;-78
2023/04/22 10:51:54;;;;;;;2.63;2.30;;;;;;;19.75;54.27;156439.56;5003936;28;21019;-78
2023/04/22 10:55:01;;;;;;;2.27;2.07;;;;;;;19.86;47.13;156468.19;4978113;28;20477;-78
2023/04/22 10:57:38;;;;;;;3.20;2.50;;;;;;;20.04;47.12;156515.19;5003931;28;20575;-78
2023/04/22 11:00:39;;;;;;;2.77;2.20;;;;;;;20.16;43.82;156546.44;5004596;28;20517;-78
2023/04/22 11:03:15;;;;;;;3.17;2.07;;;;;;;20.19;45.24;156554.28;5002797;28;20560;-78
2023/04/22 11:05:42;;;;;;;3.40;2.27;;;;;;;20.39;44.16;156605.16;5000615;28;20566;-78
2023/04/22 11:08:16;;;;;;;2.60;2.30;;;;;;;20.42;44.45;156613.00;5004310;28;20483;-78
2023/04/22 11:10:44;;;;;;;3.13;2.30;;;;;;;20.37;45.42;156601.28;5003476;28;20804;-78
2023/04/22 11:13:14;;;;;;;2.83;2.53;;;;;;;20.50;43.93;156635.19;5000214;28;20457;-78
2023/04/22 11:15:42;;;;;;;2.57;2.03;;;;;;;20.35;47.36;156596.06;5003441;28;20453;-78
2023/04/22 11:18:11;;;;;;;2.93;2.70;;;;;;;20.49;46.87;156632.56;5002283;28;20480;-78
2023/04/22 11:20:37;;;;;;;3.87;2.63;;;;;;;20.43;48.66;156616.94;5005296;28;20588;-78
2023/04/22 11:23:04;;;;;;;2.90;2.60;;;;;;;20.39;44.34;156605.16;5002346;28;20460;-78
2023/04/22 11:25:31;;;;;;;3.20;2.03;;;;;;;20.47;45.29;156627.34;5002217;28;20453;-78